Date,TemperatureHighF,TemperatureAvgF,TemperatureLowF,DewpointHighF,DewpointAvgF,DewpointLowF,HumidityHigh,HumidityAvg,HumidityLow,PressureMaxIn,PressureMinIn,WindSpeedMaxMPH,WindSpeedAvgMPH,GustSpeedMaxMPH,PrecipitationSumIn
2013-1-1,76,61,48,61,55,47,97,83,56,0.00,40.00,15,5,0,0.00
2013-1-2,78,65,54,68,61,53,96,87,65,0.00,40.00,12,5,0,0.00
2013-1-3,63,59,52,61,58,50,97,94,82,0.00,40.00,11,6,0,0.05
2013-1-4,62,54,50,58,52,48,96,91,85,0.00,40.00,9,6,0,0.00
2013-1-5,67,55,44,57,51,42,94,85,68,0.00,40.00,10,5,0,0.00
2013-1-6,73,61,55,66,58,53,95,90,77,0.00,40.00,9,4,0,0.00
2013-1-7,66,58,49,57,53,46,95,84,70,0.00,40.00,13,7,0,0.00
2013-1-8,74,66,60,69,64,57,96,92,83,0.00,40.00,14,6,0,0.00
2013-1-9,79,70,65,72,68,64,97,92,77,0.00,40.00,11,5,0,0.00
2013-1-10,79,70,62,72,67,61,98,89,68,0.00,40.00,14,6,0,0.00
2013-1-11,82,68,56,70,62,55,97,83,48,0.00,40.00,13,6,0,0.00
2013-1-12,81,68,58,70,62,57,97,85,54,0.00,40.00,11,4,0,0.00
2013-1-13,80,66,53,68,61,53,97,84,53,0.00,40.00,9,4,0,0.00
2013-1-14,80,67,56,67,61,56,97,84,55,0.00,40.00,10,5,0,0.00
2013-1-15,81,69,60,69,64,59,97,84,55,0.00,40.00,11,6,0,0.00
2013-1-16,79,68,60,68,63,59,97,84,58,0.00,40.00,11,5,0,0.00
2013-1-17,77,60,48,67,56,38,97,84,68,0.00,40.00,20,10,0,0.00
2013-1-18,61,52,41,52,45,35,82,76,68,0.00,40.00,21,13,0,0.00
2013-1-19,68,60,53,59,55,50,92,84,72,0.00,40.00,14,10,0,0.00
2013-1-20,70,60,50,60,53,48,95,81,54,0.00,40.00,11,5,0,0.00
2013-1-21,71,59,49,56,52,47,94,79,53,0.00,40.00,8,3,0,0.00
2013-1-22,61,52,41,49,39,31,89,65,31,0.00,40.00,12,4,0,0.00
2013-1-23,63,48,34,42,36,31,91,69,33,0.00,40.00,9,4,0,0.00
2013-1-24,73,54,40,53,46,37,93,76,44,0.00,40.00,13,5,0,0.00
2013-1-25,74,60,49,61,51,46,93,74,43,0.00,40.00,11,4,0,0.00
2013-1-26,74,59,43,62,52,41,94,81,60,0.00,40.00,10,4,0,0.00
2013-1-27,72,63,53,67,59,51,95,88,74,0.00,40.00,14,6,0,0.00
2013-1-28,78,68,57,65,61,55,94,80,58,0.00,40.00,14,7,0,0.00
2013-1-29,80,69,56,70,64,55,95,85,65,0.00,40.00,12,7,0,0.00
2013-1-30,83,74,65,68,64,62,94,74,53,0.00,40.00,21,13,0,0.00
2013-1-31,72,54,39,65,36,28,83,55,28,0.00,40.00,18,9,0,0.00
2013-2-1,68,50,34,43,34,27,88,59,21,0.00,40.00,12,5,0,0.00
2013-2-2,67,50,37,46,39,32,90,69,38,0.00,40.00,9,4,0,0.00
2013-2-3,67,49,34,51,35,27,94,66,22,0.00,40.00,12,5,0,0.00
2013-2-4,67,50,33,49,38,31,91,69,29,0.00,40.00,8,3,0,0.00
2013-2-5,72,57,42,52,44,39,91,67,34,0.00,40.00,8,3,0,0.00
2013-2-6,68,62,57,62,58,51,93,86,77,0.00,40.00,9,4,0,0.05
2013-2-7,79,68,63,66,63,61,93,85,58,0.00,40.00,15,8,0,0.16
2013-2-8,73,64,56,65,58,53,92,81,58,0.00,40.00,14,8,0,0.00
2013-2-9,67,57,48,58,50,45,93,80,55,0.00,40.00,14,6,0,0.00
2013-2-10,73,61,46,61,54,44,94,78,55,0.00,40.00,18,9,0,0.00
2013-2-11,82,68,55,65,60,53,93,76,50,0.00,40.00,19,8,0,0.00
2013-2-12,83,71,60,69,63,57,93,78,51,0.00,40.00,15,6,0,0.00
2013-2-13,77,71,65,73,67,59,90,86,66,0.00,40.00,18,10,0,0.05
2013-2-14,64,57,51,61,53,49,93,87,80,0.00,40.00,9,5,0,0.00
2013-2-15,66,53,44,53,47,42,93,81,49,0.00,40.00,12,5,0,0.05
2013-2-16,60,50,44,51,42,28,95,75,51,0.00,40.00,20,7,0,0.00
2013-2-17,52,41,30,27,20,9,77,46,18,0.00,40.00,14,7,0,0.00
2013-2-18,62,44,26,45,34,22,89,70,43,0.00,40.00,13,4,0,0.00
2013-2-19,79,61,41,59,50,39,94,71,40,0.00,40.00,21,9,0,0.00
2013-2-20,67,58,49,59,47,40,89,66,44,0.00,40.00,10,5,0,0.00
2013-2-21,72,58,44,58,50,42,93,77,55,0.00,40.00,12,5,0,0.00
2013-2-22,84,71,59,71,64,56,95,81,49,0.00,40.00,15,8,0,0.00
2013-2-23,84,75,66,70,67,61,93,77,52,0.00,40.00,18,10,0,0.00
2013-2-24,72,66,62,65,62,58,94,86,73,0.00,40.00,11,5,0,0.00
2013-2-25,75,68,61,69,65,59,95,91,75,0.00,40.00,15,6,0,0.00
2013-2-26,77,69,63,72,65,56,96,87,53,0.00,40.00,19,10,0,0.46
2013-2-27,68,61,56,58,52,46,90,74,53,0.00,40.00,12,7,0,0.00
2013-2-28,72,59,47,51,45,38,88,62,31,0.00,40.00,18,8,0,0.00
2013-3-1,62,55,48,46,39,32,85,57,33,0.00,40.00,14,8,0,0.00
2013-3-2,57,49,40,38,32,23,78,54,27,0.00,40.00,24,11,0,0.00
2013-3-3,49,41,33,33,30,28,81,65,45,0.00,40.00,17,9,0,0.00
2013-3-4,64,45,30,40,32,23,91,65,27,0.00,40.00,9,4,0,0.00
2013-3-5,75,58,38,55,44,36,92,65,29,0.00,40.00,17,8,0,0.00
2013-3-6,65,56,46,60,37,27,85,52,26,0.00,40.00,23,14,0,0.00
2013-3-7,63,49,37,46,38,31,90,68,36,0.00,40.00,9,5,0,0.00
2013-3-8,70,52,37,51,42,35,94,74,29,0.00,40.00,12,4,0,0.00
2013-3-9,68,55,40,56,47,39,94,78,53,0.00,40.00,13,5,0,0.00
2013-3-10,73,60,46,63,52,44,94,76,50,0.00,40.00,17,7,0,0.00
2013-3-11,78,64,50,63,56,48,95,75,47,0.00,40.00,15,8,0,0.00
2013-3-12,72,67,57,69,62,48,93,84,74,0.00,40.00,14,9,0,0.05
2013-3-13,71,58,44,48,40,31,91,55,23,0.00,40.00,12,7,0,0.00
2013-3-14,59,51,39,39,34,28,86,53,34,0.00,40.00,14,7,0,0.00
2013-3-15,71,51,34,48,37,31,93,65,29,0.00,40.00,10,4,0,0.00
2013-3-16,79,60,40,57,44,37,91,61,28,0.00,40.00,14,7,0,0.00
2013-3-17,77,61,44,60,49,41,92,69,35,0.00,40.00,11,5,0,0.08
2013-3-18,79,68,60,69,62,59,95,81,51,0.00,40.00,13,5,0,0.10
2013-3-19,81,69,59,64,61,56,92,77,49,0.00,40.00,13,6,0,0.00
2013-3-20,70,62,54,64,58,52,94,85,63,0.00,40.00,14,6,0,0.00
2013-3-21,66,54,44,52,43,34,94,70,31,0.00,40.00,11,6,0,0.00
2013-3-22,66,55,42,52,46,40,92,72,52,0.00,40.00,14,6,0,0.00
2013-3-23,72,62,54,70,60,50,96,92,81,0.00,40.00,13,5,0,0.44
2013-3-24,80,72,65,74,68,64,96,87,68,0.00,40.00,23,13,0,0.39
2013-3-25,67,61,54,64,44,30,90,58,26,0.00,40.00,18,12,0,0.00
2013-3-26,56,49,42,35,32,29,71,52,39,0.00,40.00,17,10,0,0.00
2013-3-27,60,47,36,41,35,31,88,65,38,0.00,40.00,10,5,0,0.00
2013-3-28,67,50,36,48,40,35,94,71,32,0.00,40.00,11,4,0,0.00
2013-3-29,71,54,38,54,41,36,94,68,28,0.00,40.00,11,3,0,0.00
2013-3-30,77,60,41,56,47,39,92,67,37,0.00,40.00,13,5,0,0.00
2013-3-31,81,67,53,59,52,-100,89,63,37,0.00,40.00,16,7,0,0.00
2013-4-1,82,70,58,67,60,54,90,73,52,0.00,40.00,15,8,0,0.00
2013-4-2,77,66,54,63,55,48,94,71,37,0.00,40.00,13,6,0,0.00
2013-4-3,80,66,53,67,60,52,95,83,54,0.00,40.00,13,6,0,0.98
2013-4-4,75,70,65,72,67,63,96,89,75,0.00,40.00,19,8,0,0.00
2013-4-5,67,62,57,64,60,55,95,93,89,0.00,40.00,13,6,0,0.05
2013-4-6,68,61,55,60,56,52,92,85,74,0.00,40.00,16,8,0,0.00
2013-4-7,75,65,56,68,58,55,95,80,55,0.00,40.00,15,6,0,0.00
2013-4-8,79,67,53,68,60,52,95,80,50,0.00,40.00,14,5,0,0.00
2013-4-9,81,69,58,71,62,56,95,79,54,0.00,40.00,14,6,0,0.00
2013-4-10,80,70,57,71,64,56,95,83,64,0.00,40.00,14,6,0,0.00
2013-4-11,88,76,69,73,70,67,95,83,53,0.00,40.00,17,10,0,0.00
2013-4-12,84,77,72,75,71,67,91,82,63,0.00,40.00,19,11,0,0.00
2013-4-13,80,71,59,69,60,52,94,71,46,0.00,40.00,10,5,0,0.00
2013-4-14,78,67,55,71,63,53,96,87,65,0.00,40.00,18,6,0,2.44
2013-4-15,84,71,63,71,66,62,96,85,60,0.00,40.00,13,5,0,0.00
2013-4-16,80,71,64,73,67,63,96,87,71,0.00,40.00,13,6,0,0.00
2013-4-17,78,71,63,73,67,62,96,88,72,0.00,40.00,13,6,0,0.00
2013-4-18,83,73,63,73,68,62,96,83,62,0.00,40.00,13,6,0,0.00
2013-4-19,88,76,71,76,71,69,95,84,55,0.00,40.00,17,8,0,0.05
2013-4-20,73,59,53,71,57,51,95,93,92,0.00,40.00,15,6,0,0.57
2013-4-21,71,65,55,67,62,53,95,90,83,0.00,40.00,15,10,0,0.18
2013-4-22,67,66,62,66,64,60,96,93,89,0.00,40.00,17,10,0,0.05
2013-4-23,72,65,58,64,60,55,93,83,69,0.00,40.00,13,8,0,0.00
2013-4-24,81,67,54,69,61,53,95,80,55,0.00,40.00,13,4,0,0.00
2013-4-25,85,71,58,71,64,56,95,80,50,0.00,40.00,10,3,0,0.00
2013-4-26,79,71,62,72,66,61,95,86,71,0.00,40.00,16,7,0,0.00
2013-4-27,79,70,60,70,62,59,95,77,50,0.00,40.00,14,6,0,0.00
2013-4-28,80,71,63,71,64,61,95,80,59,0.00,40.00,16,7,0,0.00
2013-4-29,84,72,62,70,64,60,94,79,48,0.00,40.00,14,6,0,0.20
2013-4-30,83,70,65,73,67,64,96,89,60,0.00,40.00,14,5,0,0.00
2013-5-1,77,70,65,73,68,64,96,91,80,0.00,40.00,15,8,0,0.05
2013-5-2,71,69,68,70,68,67,96,94,93,0.00,40.00,22,8,0,2.84
2013-5-3,70,68,67,68,66,65,96,94,85,0.00,40.00,25,16,0,4.21
2013-5-4,73,70,65,71,68,63,95,92,85,0.00,40.00,24,14,0,2.01
2013-5-5,75,67,61,68,59,53,96,78,45,0.00,40.00,13,8,0,0.05
2013-5-6,72,64,58,58,54,52,93,72,50,0.00,40.00,12,7,0,0.00
2013-5-7,75,64,52,62,57,50,93,77,61,0.00,40.00,17,7,0,0.00
2013-5-8,80,68,56,67,60,54,94,77,53,0.00,40.00,9,5,0,0.00
2013-5-9,83,70,59,70,62,57,94,77,46,0.00,40.00,9,4,0,0.00
2013-5-10,87,72,59,71,62,-100,94,78,48,0.00,40.00,11,5,0,0.00
2013-5-11,87,75,66,74,70,65,95,84,60,0.00,40.00,15,5,0,0.00
2013-5-12,84,74,66,72,67,-100,95,82,58,0.00,40.00,11,6,0,0.00
2013-5-13,77,69,57,69,57,45,90,66,32,0.00,40.00,11,5,0,0.00
2013-5-14,77,65,51,60,53,49,94,70,44,0.00,40.00,11,4,0,0.00
2013-5-15,82,67,52,67,56,51,94,73,38,0.00,40.00,10,3,0,0.00
2013-5-16,83,64,58,70,41,-100,93,77,53,0.00,40.00,11,4,0,0.00
2013-5-17,85,72,60,70,58,-100,94,78,50,0.00,40.00,14,5,0,0.00
2013-5-18,86,75,63,74,68,61,94,81,57,0.00,40.00,13,5,0,0.13
2013-5-19,86,76,69,75,71,68,95,85,67,0.00,40.00,13,6,0,0.10
2013-5-20,85,76,70,75,71,68,94,86,56,0.00,40.00,12,4,0,0.00
2013-5-21,85,74,67,76,70,66,96,88,60,0.00,40.00,12,4,0,0.05
2013-5-22,82,73,65,74,70,65,98,90,65,0.00,40.00,13,4,0,1.01
2013-5-23,88,76,67,76,71,66,99,84,55,0.00,40.00,10,4,0,0.00
2013-5-24,88,78,68,73,68,62,98,76,41,0.00,40.00,10,5,0,0.00
2013-5-25,80,72,62,67,61,54,98,71,41,0.00,40.00,13,6,0,0.00
2013-5-26,81,69,57,66,59,56,98,74,42,0.00,40.00,11,4,0,0.00
2013-5-27,81,70,57,68,62,57,98,78,54,0.00,40.00,13,5,0,0.00
2013-5-28,83,73,60,70,67,59,98,81,64,0.00,40.00,14,7,0,0.00
2013-5-29,85,77,66,74,71,65,98,82,65,0.00,40.00,16,8,0,0.00
2013-5-30,85,78,71,74,72,70,96,82,64,0.00,40.00,17,9,0,0.16
2013-5-31,84,78,70,72,71,69,95,81,63,0.00,40.00,17,10,0,0.00
2013-6-1,83,77,71,75,72,69,97,86,69,0.00,40.00,15,8,0,0.36
2013-6-2,85,78,70,78,74,-100,99,90,77,0.00,40.00,13,6,0,0.13
2013-6-3,90,78,72,77,74,72,99,87,58,0.00,40.00,16,5,0,0.13
2013-6-4,83,76,72,77,74,71,99,94,80,0.00,40.00,10,4,0,0.28
2013-6-5,83,75,72,75,73,71,99,93,75,0.00,40.00,9,4,0,0.21
2013-6-6,81,76,73,77,74,72,98,94,83,0.00,40.00,20,10,0,0.43
2013-6-7,88,79,72,75,73,69,95,81,62,0.00,40.00,19,10,0,0.00
2013-6-8,91,79,71,78,74,71,98,86,59,0.00,40.00,12,5,0,0.00
2013-6-9,86,77,70,78,74,70,98,91,71,0.00,40.00,13,4,0,0.37
2013-6-10,90,80,74,78,75,73,98,86,64,0.00,40.00,9,5,0,0.36
2013-6-11,90,79,73,79,75,72,98,87,63,0.00,40.00,16,4,0,0.00
2013-6-12,94,82,72,79,74,71,98,80,49,0.00,40.00,7,4,0,0.00
2013-6-13,94,83,74,78,75,71,98,77,51,0.00,40.00,9,6,0,0.00
2013-6-14,89,79,73,79,76,72,96,89,71,0.00,40.00,15,6,0,0.00
2013-6-15,84,79,74,75,72,70,95,78,64,0.00,40.00,15,9,0,0.00
2013-6-16,84,79,74,75,74,71,94,84,74,0.00,40.00,13,6,0,0.00
2013-6-17,92,81,75,80,76,73,97,87,59,0.00,40.00,15,4,0,0.72
2013-6-18,92,81,72,77,74,69,98,79,51,0.00,40.00,10,6,0,0.00
2013-6-19,93,81,72,78,74,71,98,80,49,0.00,40.00,9,5,0,0.00
2013-6-20,91,80,73,78,75,72,98,86,58,0.00,40.00,16,6,0,0.00
2013-6-22,86,78,73,78,76,72,98,91,69,0.00,40.00,11,4,0,0.44
2013-6-23,88,79,71,77,74,71,99,86,64,0.00,40.00,11,4,0,0.00
2013-6-24,88,81,72,77,75,72,98,81,65,0.00,40.00,12,6,0,0.00
2013-6-25,90,81,72,77,74,71,98,81,53,0.00,40.00,11,4,0,0.00
2013-6-26,91,80,71,78,75,71,98,85,55,0.00,40.00,14,4,0,0.00
2013-6-27,92,80,71,79,75,70,99,85,56,0.00,40.00,13,4,0,0.05
2013-6-28,91,81,76,78,76,73,97,86,60,0.00,40.00,14,7,0,0.00
2013-6-29,88,81,76,78,75,72,97,84,63,0.00,40.00,15,8,0,0.05
2013-6-30,90,78,74,78,75,73,98,89,61,0.00,40.00,13,6,0,0.05
2013-7-1,87,78,74,77,74,72,97,88,67,0.00,40.00,14,8,0,0.13
2013-7-2,87,76,73,79,74,72,98,95,75,0.00,40.00,12,5,0,0.26
2013-7-3,87,80,72,79,76,72,98,88,71,0.00,40.00,14,7,0,0.05
2013-7-4,89,80,74,77,75,71,97,86,67,0.00,40.00,16,8,0,0.00
2013-7-5,88,81,72,77,74,71,97,82,63,0.00,40.00,16,8,0,0.00
2013-7-6,89,80,73,76,74,73,98,85,61,0.00,40.00,15,7,0,0.00
2013-7-7,89,80,71,77,74,71,98,83,60,0.00,40.00,15,7,0,0.00
2013-7-8,89,80,71,78,74,71,98,83,62,0.00,40.00,11,5,0,0.00
2013-7-9,89,79,70,77,72,70,98,81,55,0.00,40.00,10,5,0,0.00
2013-7-10,90,78,68,76,69,-100,98,79,57,0.00,40.00,12,5,0,0.00
2013-7-11,93,80,72,76,73,71,98,82,49,0.00,40.00,10,5,0,0.08
2013-7-12,89,78,73,78,74,72,99,90,62,0.00,40.00,14,3,0,0.08
2013-7-13,88,77,72,78,74,71,98,91,66,0.00,40.00,14,5,0,0.36
2013-7-14,82,76,70,76,73,70,99,93,80,0.00,40.00,13,5,0,0.00
2013-7-15,83,77,71,78,75,70,99,93,83,0.00,40.00,14,6,0,0.00
2013-7-16,85,80,74,77,76,74,98,87,74,0.00,40.00,16,8,0,0.00
2013-7-17,85,80,73,78,75,73,99,86,69,0.00,40.00,14,7,0,0.00
2013-7-18,86,79,73,77,75,73,99,86,67,0.00,40.00,11,5,0,0.00
2013-7-19,88,78,72,76,73,71,98,86,61,0.00,40.00,11,5,0,0.00
2013-7-20,88,76,72,79,72,-100,98,90,68,0.00,40.00,16,4,0,0.16
2013-7-21,88,77,72,78,74,72,98,92,66,0.00,40.00,10,4,0,0.00
2013-7-22,89,78,73,78,75,73,99,91,64,0.00,40.00,11,6,0,0.20
2013-7-23,87,77,74,78,75,72,98,91,73,0.00,40.00,15,7,0,0.05
2013-7-24,86,80,74,79,76,72,97,88,75,0.00,40.00,14,9,0,0.00
2013-7-25,90,82,75,76,75,74,97,81,62,0.00,40.00,15,8,0,0.00
2013-7-26,90,80,72,78,76,72,99,86,66,0.00,40.00,11,5,0,0.00
2013-7-27,89,80,74,80,76,74,99,88,67,0.00,40.00,14,4,0,0.05
2013-7-28,89,78,72,78,74,72,98,89,61,0.00,40.00,12,5,0,0.00
2013-7-29,90,81,70,78,74,69,98,81,57,0.00,40.00,11,5,0,0.05
2013-7-30,92,81,73,80,76,73,98,85,62,0.00,40.00,12,4,0,0.00
2013-7-31,91,80,73,79,76,72,98,87,61,0.00,40.00,8,4,0,0.00
2013-8-1,88,79,74,79,76,73,98,90,70,0.00,40.00,8,4,0,0.05
2013-8-2,89,79,71,78,74,71,98,86,61,0.00,40.00,13,4,0,0.00
2013-8-3,89,79,72,79,76,72,98,89,65,0.00,40.00,12,5,0,0.00
2013-8-4,90,81,75,80,77,74,98,89,67,0.00,40.00,18,6,0,0.00
2013-8-5,94,83,76,80,78,76,99,86,56,0.00,40.00,10,4,0,0.00
2013-8-6,89,81,73,80,77,73,98,88,70,0.00,40.00,11,5,0,0.00
2013-8-7,87,80,75,80,77,74,98,90,70,0.00,40.00,11,5,0,0.00
2013-8-8,89,81,75,80,77,74,98,87,69,0.00,40.00,15,6,0,0.00
2013-8-9,88,80,72,80,76,71,98,88,70,0.00,40.00,12,5,0,0.00
2013-8-10,90,80,72,81,76,71,99,89,65,0.00,40.00,11,4,0,0.00
2013-8-11,92,82,73,80,76,72,99,84,57,0.00,40.00,11,5,0,0.00
2013-8-12,93,83,74,80,77,74,98,81,61,0.00,40.00,8,4,0,0.00
2013-8-13,94,82,74,79,72,-100,97,77,52,0.00,40.00,10,5,0,0.00
2013-8-14,95,80,74,79,72,-100,97,81,48,0.00,40.00,21,5,0,0.00
2013-8-15,91,69,73,79,50,-100,98,79,60,0.00,40.00,12,5,0,0.54
2013-8-16,88,74,72,79,67,-100,98,89,70,0.00,40.00,15,4,0,1.04
2013-8-19,89,74,75,80,55,-100,98,86,68,0.00,40.00,11,5,0,0.00
2013-8-20,89,80,74,80,73,-100,98,87,67,0.00,40.00,13,6,0,0.47
2013-8-21,85,79,75,80,77,72,98,92,81,0.00,40.00,14,5,0,0.10
2013-8-22,84,80,76,80,78,75,98,94,86,0.00,40.00,10,4,0,0.00
2013-8-23,85,79,76,79,77,74,98,93,79,0.00,40.00,11,4,0,0.18
2013-8-24,85,78,74,79,76,73,98,94,80,0.00,40.00,12,4,0,0.00
2013-8-25,84,76,74,77,70,-100,98,88,76,0.00,40.00,13,6,0,0.00
2013-8-26,85,81,72,78,76,72,98,86,78,0.00,40.00,14,9,0,0.00
2013-8-27,85,78,72,75,73,71,98,85,64,0.00,40.00,11,5,0,0.00
2013-8-28,87,83,75,72,71,70,86,68,59,0.00,40.00,10,6,0,0.00
2013-8-29,92,81,71,77,73,69,96,78,48,0.00,40.00,9,5,0,0.00
2013-8-30,93,82,72,78,74,69,97,77,45,0.00,40.00,8,4,0,0.00
2013-8-31,91,79,72,78,75,71,97,87,59,0.00,40.00,11,4,0,0.05
2013-9-1,92,79,72,77,71,-100,98,80,54,0.00,40.00,8,4,0,0.00
2013-9-2,92,85,76,78,74,70,94,72,50,0.00,40.00,11,6,0,0.00
2013-9-3,89,80,74,78,75,73,97,86,64,0.00,40.00,11,4,0,0.00
2013-9-4,91,79,73,79,75,72,97,88,61,0.00,40.00,14,3,0,0.00
2013-9-5,93,81,73,79,75,72,98,83,53,0.00,40.00,9,4,0,0.10
2013-9-6,89,78,74,79,75,73,97,91,69,0.00,40.00,12,4,0,0.00
2013-9-7,86,81,72,77,73,67,97,78,53,0.00,40.00,12,7,0,0.00
2013-9-8,86,76,70,74,68,-100,98,80,54,0.00,40.00,12,5,0,0.00
2013-9-9,86,76,67,75,70,66,98,83,58,0.00,40.00,14,5,0,0.00
2013-9-10,86,77,68,74,71,67,97,83,61,0.00,40.00,15,6,0,0.00
2013-9-11,87,78,72,78,74,72,97,88,65,0.00,40.00,14,5,0,0.00
2013-9-12,85,80,73,77,75,72,97,86,71,0.00,40.00,12,5,0,0.05
2013-9-13,91,79,70,76,72,69,98,81,49,0.00,40.00,10,4,0,0.00
2013-9-14,91,80,70,76,73,69,98,82,53,0.00,40.00,8,4,0,0.00
2013-9-15,88,77,71,79,72,-100,98,89,63,0.00,40.00,14,4,0,0.00
2013-9-16,89,80,71,78,74,71,98,83,56,0.00,40.00,12,5,0,0.00
2013-9-17,87,79,71,78,74,70,98,86,65,0.00,40.00,14,6,0,0.00
2013-9-18,78,77,75,74,74,73,94,90,86,0.00,40.00,9,6,0,0.00
2013-9-19,85,77,71,76,73,69,97,87,68,0.00,40.00,12,5,0,0.18
2013-9-20,83,75,66,74,70,66,98,86,66,0.00,40.00,11,4,0,0.00
2013-9-21,88,76,66,74,70,66,98,81,51,0.00,40.00,11,4,0,0.00
2013-9-22,86,77,73,76,71,-100,96,86,70,0.00,40.00,12,6,0,0.00
2013-9-23,81,76,72,77,74,72,97,93,87,0.00,40.00,10,3,0,0.20
2013-9-24,83,77,74,78,75,73,98,95,80,0.00,40.00,8,4,0,0.57
2013-9-25,85,77,74,76,74,73,98,90,72,0.00,40.00,13,6,0,0.10
2013-9-26,85,76,70,77,74,69,98,91,77,0.00,40.00,14,6,0,0.00
2013-9-27,82,74,68,75,70,68,97,90,71,0.00,40.00,12,7,0,0.13
2013-9-28,79,74,71,74,72,69,98,92,82,0.00,40.00,14,6,0,2.37
2013-9-29,81,73,69,73,69,-100,97,88,74,0.00,40.00,16,6,0,0.00
2013-9-30,81,73,67,74,70,66,98,88,73,0.00,40.00,15,5,0,0.00
2013-10-1,72,70,67,69,68,67,96,93,87,0.00,40.00,4,2,0,0.00
2013-10-2,81,73,65,72,68,65,98,86,65,0.00,40.00,13,5,0,0.00
2013-10-3,85,75,66,75,71,66,98,88,70,0.00,40.00,12,4,0,0.00
2013-10-4,86,77,68,77,72,67,98,87,62,0.00,40.00,12,4,0,0.00
2013-10-5,86,76,67,76,72,67,98,86,63,0.00,40.00,12,5,0,0.00
2013-10-6,87,77,69,78,74,69,98,89,67,0.00,40.00,12,5,0,0.00
2013-10-7,86,76,70,76,73,69,98,91,70,0.00,40.00,14,5,0,0.00
2013-10-8,80,74,70,76,73,69,98,95,87,0.00,40.00,14,7,0,0.23
2013-10-9,70,66,64,69,65,63,98,96,91,0.00,40.00,11,7,0,0.05
2013-10-10,81,70,62,70,65,61,98,85,56,0.00,40.00,7,4,0,0.00
2013-10-11,82,68,60,71,64,60,98,88,53,0.00,40.00,6,2,0,0.00
2013-10-12,84,73,64,68,65,60,97,79,46,0.00,40.00,8,3,0,0.00
2013-10-13,84,70,60,69,62,-100,98,81,47,0.00,40.00,11,4,0,0.00
2013-10-14,78,70,65,72,68,64,97,92,74,0.00,40.00,14,6,0,0.05
2013-10-15,75,72,69,73,70,68,98,95,91,0.00,40.00,13,8,0,0.83
2013-10-16,82,74,67,74,71,67,98,91,76,0.00,40.00,12,6,0,0.00
2013-10-17,86,74,67,75,70,67,98,88,60,0.00,40.00,9,3,0,0.00
2013-10-18,88,76,66,75,71,65,98,86,57,0.00,40.00,9,4,0,0.00
2013-10-19,87,76,71,76,73,70,97,89,64,0.00,40.00,13,5,0,0.00
2013-10-20,77,72,69,73,68,-100,98,89,77,0.00,40.00,10,5,0,0.00
2013-10-21,83,74,67,76,72,67,98,92,79,0.00,40.00,11,5,0,0.18
2013-10-22,85,76,71,78,74,71,98,93,77,0.00,40.00,9,4,0,0.05
2013-10-23,76,70,57,72,64,54,97,84,47,0.00,40.00,13,6,0,0.05
2013-10-30,81,70,62,70,66,61,97,87,67,0.00,40.00,14,6,0,0.00
2013-10-31,84,73,64,71,68,64,98,84,55,0.00,40.00,12,5,0,0.00
2013-11-1,85,76,69,72,69,67,96,81,57,0.00,40.00,16,8,0,0.00
2013-11-2,75,68,57,72,65,56,97,92,78,0.00,40.00,12,5,0,0.64
2013-11-3,70,60,54,60,50,-100,98,76,47,0.00,40.00,15,7,0,0.00
2013-11-4,77,68,59,66,61,55,95,78,52,0.00,40.00,19,10,0,0.00
2013-11-5,79,71,66,70,67,64,97,87,59,0.00,40.00,19,9,0,1.97
2013-11-28,59,46,35,49,41,31,92,81,68,0.00,40.00,11,8,0,0.00
2013-11-29,66,56,44,57,51,43,97,85,65,0.00,40.00,15,9,0,0.00
2013-11-30,66,59,56,63,56,-100,98,92,86,0.00,40.00,15,10,0,0.00
2013-12-1,71,62,58,65,60,58,98,94,81,0.00,40.00,8,5,0,0.00
2013-12-2,69,60,53,61,57,52,98,91,67,0.00,40.00,9,4,0,0.00
2013-12-3,75,61,49,62,57,48,98,87,62,0.00,40.00,9,4,0,0.00
2013-12-4,81,68,57,68,63,56,97,86,60,0.00,40.00,8,3,0,0.00
2013-12-5,83,68,58,69,64,57,98,86,57,0.00,40.00,10,5,0,0.00
2013-12-6,82,72,63,72,68,62,98,87,63,0.00,40.00,13,6,0,0.00
2013-12-7,83,70,62,71,64,-100,98,85,63,0.00,40.00,9,4,0,0.00
2013-12-8,80,68,59,71,65,59,98,92,73,0.00,40.00,11,4,0,0.00